Time;durP1;ratioP1;P1;durP2;ratioP2;P2;SDS_P1;SDS_P2;PMS_P1;PMS_P2;Temp;Humidity;BMP_temperature;BMP_pressure;BME280_temperature;BME280_humidity;BME280_pressure;Samples;Min_cycle;Max_cycle;Signal;HPM_P1;HPM_P2
2022/06/09 00:01:33;;;;;;;55.72;15.40;;;;;;;11.99;100.00;100748.22;4938851;29;20058;-56
2022/06/09 00:04:04;;;;;;;51.97;14.82;;;;;;;12.00;100.00;100748.25;4939451;29;20031;-56
2022/06/09 00:06:38;;;;;;;49.13;14.75;;;;;;;11.99;100.00;100751.69;4939426;29;20031;-56
2022/06/09 00:09:05;;;;;;;45.95;13.57;;;;;;;11.99;100.00;100750.81;4938563;29;20495;-56
2022/06/09 00:11:33;;;;;;;49.20;15.50;;;;;;;11.99;100.00;100750.81;4939603;29;20028;-56
2022/06/09 00:13:59;;;;;;;48.95;15.18;;;;;;;11.98;100.00;100754.22;4939209;29;20127;-56
2022/06/09 00:16:24;;;;;;;40.53;14.55;;;;;;;11.96;100.00;100749.03;4938506;29;20099;-56
2022/06/09 00:18:49;;;;;;;60.70;15.68;;;;;;;11.98;100.00;100751.63;4939133;29;20435;-56
2022/06/09 00:21:15;;;;;;;46.22;15.93;;;;;;;11.97;100.00;100758.53;4939341;29;20020;-56
2022/06/09 00:23:40;;;;;;;48.15;14.82;;;;;;;11.96;100.00;100761.09;4938422;29;20048;-56
2022/06/09 00:26:06;;;;;;;45.33;13.98;;;;;;;11.94;100.00;100753.28;4938933;29;20501;-56
2022/06/09 00:28:31;;;;;;;56.42;14.80;;;;;;;11.95;100.00;100764.47;4938421;29;20550;-56
2022/06/09 00:30:56;;;;;;;51.33;15.38;;;;;;;11.94;100.00;100754.97;4938995;29;20035;-56
2022/06/09 00:33:22;;;;;;;56.75;16.55;;;;;;;11.95;100.00;100760.19;4938890;29;20038;-56
2022/06/09 00:35:49;;;;;;;46.78;14.82;;;;;;;11.94;100.00;100758.44;4938143;29;20030;-56
2022/06/09 00:38:14;;;;;;;61.05;15.93;;;;;;;11.94;100.00;100758.44;4938881;29;20495;-56
2022/06/09 00:40:40;;;;;;;44.83;15.02;;;;;;;11.96;100.00;100761.09;4938843;29;20031;-56
2022/06/09 00:43:05;;;;;;;52.95;14.70;;;;;;;11.95;100.00;100759.28;4938019;29;20035;-56
2022/06/09 00:45:38;;;;;;;40.35;14.65;;;;;;;11.93;100.00;100767.00;4938792;29;20383;-56
2022/06/09 00:48:34;;;;;;;58.85;15.30;;;;;;;11.92;100.00;100764.41;4938526;29;20016;-56
2022/06/09 00:51:24;;;;;;;46.25;15.52;;;;;;;11.89;100.00;100766.91;4938026;29;20063;-56
2022/06/09 00:53:54;;;;;;;56.95;14.98;;;;;;;11.84;100.00;100774.56;4938567;29;20035;-56
2022/06/09 00:56:21;;;;;;;58.33;15.20;;;;;;;11.77;100.00;100781.25;4938538;29;20028;-56
2022/06/09 00:58:50;;;;;;;63.75;15.98;;;;;;;11.76;100.00;100779.53;4938040;29;20032;-56
2022/06/09 01:01:17;;;;;;;50.67;14.85;;;;;;;11.70;100.00;100779.38;4938568;29;20023;-56
2022/06/09 01:03:49;;;;;;;67.25;16.90;;;;;;;11.70;100.00;100782.84;4937732;29;20476;-56
2022/06/09 01:06:18;;;;;;;62.72;17.13;;;;;;;11.68;100.00;100786.22;4938436;29;20023;-56
2022/06/09 01:08:50;;;;;;;61.58;15.23;;;;;;;11.65;100.00;100776.69;4938426;29;20103;-56
2022/06/09 01:11:15;;;;;;;64.30;15.73;;;;;;;11.66;100.00;100769.84;4936855;29;20483;-56
2022/06/09 01:13:42;;;;;;;58.75;15.50;;;;;;;11.64;100.00;100772.34;4938367;29;20035;-56
2022/06/09 01:16:07;;;;;;;67.00;16.52;;;;;;;11.63;100.00;100769.75;4938189;29;20040;-56
2022/06/09 01:18:54;;;;;;;67.07;15.32;;;;;;;11.63;100.00;100773.22;4937467;29;20032;-56
2022/06/09 01:21:54;;;;;;;68.90;16.92;;;;;;;11.63;100.00;100777.47;4938219;29;20030;-56
2022/06/09 01:24:47;;;;;;;58.33;15.57;;;;;;;11.61;100.00;100779.19;4937947;29;20052;-56
2022/06/09 01:27:43;;;;;;;66.00;15.68;;;;;;;11.60;100.00;100791.19;4937926;29;20047;-56
2022/06/09 01:30:17;;;;;;;57.88;15.50;;;;;;;11.60;100.00;100782.59;4937921;29;20038;-56
2022/06/09 01:32:53;;;;;;;72.85;16.52;;;;;;;11.58;100.00;100785.13;4937249;29;20530;-56
2022/06/09 01:35:33;;;;;;;61.72;17.58;;;;;;;11.60;100.00;100782.59;4937805;29;20035;-56
2022/06/09 01:37:59;;;;;;;72.97;17.92;;;;;;;11.62;100.00;100788.63;4937717;29;20110;-56
2022/06/09 01:40:26;;;;;;;78.03;17.52;;;;;;;11.63;100.00;100792.97;4937215;29;20023;-56
2022/06/09 01:42:57;;;;;;;68.78;16.65;;;;;;;11.62;100.00;100792.13;4937768;29;20119;-56
2022/06/09 01:45:48;;;;;;;75.65;18.15;;;;;;;11.63;100.00;100798.13;4937799;29;20119;-56
2022/06/09 01:48:17;;;;;;;74.57;18.73;;;;;;;11.64;100.00;100794.72;4937415;29;20519;-56
2022/06/09 01:50:42;;;;;;;72.20;18.67;;;;;;;11.62;100.00;100792.13;4937574;29;20082;-56
2022/06/09 01:53:15;;;;;;;75.95;19.80;;;;;;;11.63;100.00;100798.13;4936668;29;20036;-56
2022/06/09 01:55:45;;;;;;;75.75;18.15;;;;;;;11.62;100.00;100801.53;4937750;29;20032;-56
2022/06/09 01:58:15;;;;;;;74.85;18.27;;;;;;;11.62;100.00;100804.13;4937177;29;20496;-56
2022/06/09 02:00:41;;;;;;;76.10;19.08;;;;;;;11.62;100.00;100806.72;4936863;29;20027;-56
2022/06/09 02:03:13;;;;;;;79.72;19.10;;;;;;;11.60;100.00;100809.25;4937095;29;20027;-56
2022/06/09 02:05:43;;;;;;;70.82;18.67;;;;;;;11.58;100.00;100799.72;4937546;29;20031;-56
2022/06/09 02:08:14;;;;;;;85.45;19.33;;;;;;;11.57;100.00;100808.31;4936433;29;20039;-56
2022/06/09 02:10:44;;;;;;;74.05;18.48;;;;;;;11.53;100.00;100804.81;4937439;29;20031;-56
2022/06/09 02:13:14;;;;;;;81.22;19.50;;;;;;;11.54;100.00;100809.09;4936880;29;20458;-56
2022/06/09 02:15:46;;;;;;;82.15;20.15;;;;;;;11.53;100.00;100808.25;4936375;29;20040;-56
2022/06/09 02:18:15;;;;;;;79.93;19.20;;;;;;;11.52;100.00;100815.94;4937113;29;20023;-56
2022/06/09 02:20:45;;;;;;;73.50;20.52;;;;;;;11.52;100.00;100816.81;4936595;29;20484;-56
2022/06/09 02:23:12;;;;;;;91.13;20.02;;;;;;;11.52;100.00;100818.53;4935332;29;20048;-56
2022/06/09 02:25:39;;;;;;;89.50;20.48;;;;;;;11.50;100.00;100821.09;4937177;29;20031;-56
2022/06/09 02:28:06;;;;;;;88.70;21.13;;;;;;;11.51;100.00;100830.53;4935834;29;20034;-56
2022/06/09 02:30:32;;;;;;;82.43;21.02;;;;;;;11.53;100.00;100834.06;4937225;29;20032;-56
2022/06/09 02:32:58;;;;;;;89.72;21.42;;;;;;;11.51;100.00;100830.53;4936923;29;20067;-56
2022/06/09 02:35:23;;;;;;;89.15;21.60;;;;;;;11.54;100.00;100829.75;4936042;29;20080;-56
2022/06/09 02:37:49;;;;;;;82.60;21.60;;;;;;;11.53;100.00;100835.78;4937068;29;20041;-56
2022/06/09 02:40:14;;;;;;;72.75;20.33;;;;;;;11.53;100.00;100835.78;4936624;29;20472;-56
2022/06/09 02:42:39;;;;;;;89.35;22.05;;;;;;;11.53;100.00;100840.94;4935940;29;20031;-56
2022/06/09 02:45:06;;;;;;;98.13;22.20;;;;;;;11.52;100.00;100846.94;4936730;29;20031;-56
2022/06/09 02:47:32;;;;;;;83.20;20.77;;;;;;;11.53;100.00;100841.78;4936791;29;20039;-56
2022/06/09 02:49:57;;;;;;;90.68;21.80;;;;;;;11.52;100.00;100850.38;4935777;29;20036;-56
2022/06/09 02:52:23;;;;;;;88.28;22.23;;;;;;;11.52;100.00;100852.09;4936503;29;20056;-56
2022/06/09 02:54:48;;;;;;;90.78;22.55;;;;;;;11.50;100.00;100857.22;4936441;29;20387;-56
2022/06/09 02:57:13;;;;;;;92.82;23.17;;;;;;;11.50;100.00;100864.06;4935375;29;20095;-56
2022/06/09 02:59:39;;;;;;;97.57;23.27;;;;;;;11.50;100.00;100859.78;4936711;29;20020;-56
2022/06/09 03:02:04;;;;;;;87.15;22.63;;;;;;;11.50;100.00;100857.22;4936450;29;20028;-56
2022/06/09 03:04:29;;;;;;;87.78;22.73;;;;;;;11.51;100.00;100858.94;4935633;29;20027;-56
2022/06/09 03:06:55;;;;;;;91.63;22.35;;;;;;;11.52;100.00;100868.44;4936208;29;20032;-56
2022/06/09 03:09:20;;;;;;;101.35;22.77;;;;;;;11.52;100.00;100868.44;4936170;29;20027;-56
2022/06/09 03:11:45;;;;;;;84.75;22.58;;;;;;;11.53;100.00;100870.19;4935392;29;20476;-56
2022/06/09 03:14:11;;;;;;;83.57;22.20;;;;;;;11.56;100.00;100881.44;4935942;29;20028;-56
2022/06/09 03:16:36;;;;;;;80.25;21.55;;;;;;;11.55;100.00;100877.09;4936255;29;20091;-56
2022/06/09 03:19:02;;;;;;;103.45;23.75;;;;;;;11.56;100.00;100886.59;4935274;29;20024;-56
2022/06/09 03:21:27;;;;;;;92.63;22.35;;;;;;;11.56;100.00;100890.03;4935970;29;20035;-56
2022/06/09 03:23:53;;;;;;;92.25;23.05;;;;;;;11.57;100.00;100896.06;4935617;29;20103;-56
2022/06/09 03:26:18;;;;;;;91.15;23.13;;;;;;;11.58;100.00;100900.41;4935551;29;20464;-56
2022/06/09 03:28:43;;;;;;;86.10;21.88;;;;;;;11.59;100.00;100899.56;4935871;29;20526;-56
2022/06/09 03:31:09;;;;;;;82.68;21.52;;;;;;;11.59;100.00;100894.41;4935800;29;20031;-56
2022/06/09 03:33:34;;;;;;;84.05;22.63;;;;;;;11.57;100.00;100899.53;4934882;29;20167;-56
2022/06/09 03:36:00;;;;;;;82.03;22.15;;;;;;;11.56;100.00;100909.84;4935751;29;20109;-56
2022/06/09 03:38:26;;;;;;;87.25;23.60;;;;;;;11.55;100.00;100903.78;4934868;29;20227;-56
2022/06/09 03:40:51;;;;;;;67.32;22.10;;;;;;;11.54;100.00;100917.50;4935586;29;20026;-56
2022/06/09 03:43:16;;;;;;;95.93;21.02;;;;;;;11.49;100.00;100919.97;4935576;29;20551;-56
2022/06/09 03:45:42;;;;;;;75.32;21.23;;;;;;;11.50;100.00;100923.44;4935108;29;20496;-56
2022/06/09 03:48:07;;;;;;;81.97;21.88;;;;;;;11.47;100.00;100926.78;4935607;29;20036;-56
2022/06/09 03:50:34;;;;;;;76.95;21.13;;;;;;;11.41;100.00;100929.19;4935816;29;20023;-56
2022/06/09 03:52:59;;;;;;;94.15;21.83;;;;;;;11.38;100.00;100939.47;4934818;29;20107;-56
2022/06/09 03:55:25;;;;;;;85.18;22.20;;;;;;;11.33;100.00;100939.31;4935446;29;20171;-56
2022/06/09 03:57:51;;;;;;;78.72;21.88;;;;;;;11.33;100.00;100933.28;4935631;29;20023;-56
2022/06/09 04:00:20;;;;;;;82.65;21.92;;;;;;;11.29;100.00;100946.94;4934881;29;20096;-56
2022/06/09 04:02:46;;;;;;;85.22;22.67;;;;;;;11.26;100.00;100950.31;4935644;29;20148;-56
2022/06/09 04:05:13;;;;;;;87.50;21.73;;;;;;;11.24;100.00;100953.69;4935169;29;20118;-56
2022/06/09 04:07:39;;;;;;;82.80;22.77;;;;;;;11.19;100.00;100956.13;4934909;29;20141;-56
2022/06/09 04:10:05;;;;;;;89.50;23.25;;;;;;;11.18;100.00;100963.00;4935295;29;20107;-56
2022/06/09 04:12:31;;;;;;;91.20;22.70;;;;;;;11.17;100.00;100960.38;4935874;29;20107;-56
2022/06/09 04:14:56;;;;;;;105.90;22.33;;;;;;;11.15;100.00;100970.63;4934671;29;20087;-56
2022/06/09 04:17:21;;;;;;;92.63;23.52;;;;;;;11.13;100.00;100967.16;4935439;29;20050;-56
2022/06/09 04:19:47;;;;;;;93.57;22.65;;;;;;;11.12;100.00;100965.38;4935490;29;20031;-56
2022/06/09 04:22:12;;;;;;;96.13;23.08;;;;;;;11.12;100.00;100974.84;4934462;29;20051;-56
2022/06/09 04:24:38;;;;;;;87.55;23.45;;;;;;;11.12;100.00;100978.28;4935143;29;20051;-56
2022/06/09 04:27:04;;;;;;;91.43;24.05;;;;;;;11.11;100.00;100978.25;4935422;29;20031;-56
2022/06/09 04:29:29;;;;;;;84.90;25.52;;;;;;;11.07;100.00;100973.84;4934462;29;20436;-56
2022/06/09 04:31:54;;;;;;;88.32;23.85;;;;;;;11.07;100.00;100982.44;4935321;29;20107;-56
2022/06/09 04:34:20;;;;;;;81.72;25.02;;;;;;;11.07;100.00;100982.44;4935194;29;20415;-56
2022/06/09 04:36:45;;;;;;;84.80;24.67;;;;;;;11.04;100.00;100982.34;4934658;29;20027;-56
2022/06/09 04:39:11;;;;;;;94.63;25.35;;;;;;;11.06;100.00;100980.69;4935033;29;20032;-56
2022/06/09 04:41:38;;;;;;;98.75;25.88;;;;;;;11.06;100.00;100988.41;4934689;29;20024;-56
2022/06/09 04:44:04;;;;;;;101.13;27.15;;;;;;;11.07;100.00;100987.59;4935294;29;20034;-56
2022/06/09 04:46:31;;;;;;;107.82;28.88;;;;;;;11.07;100.00;100989.31;4938623;29;20074;-56
2022/06/09 04:48:56;;;;;;;120.88;29.63;;;;;;;11.07;100.00;100987.59;4937898;29;20399;-56
2022/06/09 04:51:25;;;;;;;103.57;28.13;;;;;;;11.07;100.00;100992.75;4938688;29;20020;-56
2022/06/09 04:53:51;;;;;;;107.07;28.42;;;;;;;11.08;100.00;101004.81;4938286;29;20111;-56
2022/06/09 04:56:17;;;;;;;109.07;30.67;;;;;;;11.11;100.00;101004.03;4937762;29;20185;-56
2022/06/09 04:58:43;;;;;;;107.70;30.92;;;;;;;11.12;100.00;101016.97;4938566;29;20026;-56
2022/06/09 05:01:16;;;;;;;98.47;30.95;;;;;;;11.13;100.00;101013.56;4938351;29;20142;-56
2022/06/09 05:03:41;;;;;;;107.85;32.72;;;;;;;11.15;100.00;101016.19;4937786;29;20369;-56
2022/06/09 05:06:06;;;;;;;101.18;31.92;;;;;;;11.19;100.00;101026.66;4938167;29;20480;-56
2022/06/09 05:08:32;;;;;;;98.03;33.55;;;;;;;11.26;100.00;101027.72;4938316;29;20110;-56
2022/06/09 05:10:57;;;;;;;103.88;31.50;;;;;;;11.30;100.00;101026.09;4937656;29;20063;-56
2022/06/09 05:13:22;;;;;;;112.30;32.80;;;;;;;11.36;100.00;101037.47;4938273;29;20107;-56
2022/06/09 05:15:50;;;;;;;107.15;34.35;;;;;;;11.43;100.00;101033.38;4938254;29;20027;-56
2022/06/09 05:18:18;;;;;;;124.88;34.70;;;;;;;11.52;100.00;101049.09;4937398;29;20474;-56
2022/06/09 05:20:44;;;;;;;113.30;33.88;;;;;;;11.60;100.00;101045.88;4938178;29;20043;-56
2022/06/09 05:23:09;;;;;;;105.72;32.97;;;;;;;11.67;100.00;101047.78;4937607;29;20047;-56
2022/06/09 05:25:34;;;;;;;116.13;32.17;;;;;;;11.72;100.00;101060.84;4937454;29;20040;-56
2022/06/09 05:28:00;;;;;;;106.63;30.92;;;;;;;11.80;100.00;101060.25;4938146;29;20032;-56
2022/06/09 05:30:25;;;;;;;105.03;31.40;;;;;;;11.89;100.00;101059.63;4938108;29;20024;-56
2022/06/09 05:32:52;;;;;;;122.80;33.75;;;;;;;12.02;100.00;101060.88;4937164;29;20031;-56
2022/06/09 05:35:19;;;;;;;95.50;30.42;;;;;;;12.05;100.00;101066.09;4937820;29;20066;-56
2022/06/09 05:46:00;;;;;;;69.13;24.95;;;;;;;12.33;100.00;101087.50;4937041;29;20098;-56
2022/06/09 05:48:25;;;;;;;99.15;25.00;;;;;;;12.33;100.00;101088.38;4937785;29;20027;-56
2022/06/09 05:50:52;;;;;;;76.35;23.35;;;;;;;12.38;100.00;101088.47;4937645;29;20059;-56
2022/06/09 05:53:17;;;;;;;72.30;23.23;;;;;;;12.42;100.00;101092.94;4936622;29;20444;-56
2022/06/09 05:55:43;;;;;;;72.47;23.27;;;;;;;12.46;100.00;101094.75;4937467;29;20019;-56
2022/06/09 05:58:08;;;;;;;76.68;22.67;;;;;;;12.54;100.00;101096.63;4937176;29;20548;-56
2022/06/09 06:00:34;;;;;;;74.13;23.17;;;;;;;12.59;100.00;101101.09;4936684;29;20548;-56
2022/06/09 06:02:59;;;;;;;74.95;23.42;;;;;;;12.67;100.00;101106.47;4937482;29;20047;-56
2022/06/09 06:08:08;;;;;;;76.32;23.33;;;;;;;12.85;100.00;101119.00;4936600;29;20043;-56
2022/06/09 06:10:34;;;;;;;80.55;21.40;;;;;;;12.94;100.00;101124.38;4937267;29;20027;-56
2022/06/09 06:12:59;;;;;;;70.95;19.80;;;;;;;13.09;100.00;101126.47;4936850;29;20031;-56
2022/06/09 06:15:25;;;;;;;58.10;19.05;;;;;;;13.26;100.00;101125.97;4936476;29;20096;-56
2022/06/09 06:17:56;;;;;;;58.35;16.33;;;;;;;13.30;100.00;101126.09;4937197;29;20038;-56
2022/06/09 06:20:22;;;;;;;51.38;17.75;;;;;;;13.45;100.00;101127.31;4936329;29;20050;-56
2022/06/09 06:22:48;;;;;;;54.80;15.77;;;;;;;13.55;100.00;101129.25;4936966;29;20031;-56
2022/06/09 06:25:13;;;;;;;54.90;13.80;;;;;;;13.60;100.00;101139.72;4936900;29;20490;-56
2022/06/09 06:27:38;;;;;;;51.20;13.88;;;;;;;13.61;100.00;101136.31;4936154;29;20043;-56
2022/06/09 06:30:05;;;;;;;48.33;12.65;;;;;;;13.66;100.00;101142.44;4936966;29;20020;-56
2022/06/09 06:32:31;;;;;;;44.05;12.75;;;;;;;13.66;100.00;101145.91;4937179;29;20036;-56
2022/06/09 06:34:57;;;;;;;40.10;11.45;;;;;;;13.63;100.00;101147.53;4935729;29;20032;-56
2022/06/09 06:37:23;;;;;;;40.53;11.75;;;;;;;13.68;100.00;101158.03;4936782;29;20035;-56
2022/06/09 06:39:48;;;;;;;41.67;12.48;;;;;;;13.70;100.00;101159.81;4936870;29;20036;-56
2022/06/09 06:42:15;;;;;;;36.85;11.25;;;;;;;13.78;100.00;101168.59;4935575;29;20361;-56
2022/06/09 06:44:40;;;;;;;33.95;10.80;;;;;;;13.75;100.00;101163.38;4936836;29;20075;-56
2022/06/09 06:47:05;;;;;;;38.83;9.73;;;;;;;13.76;100.00;101169.41;4936381;29;20020;-56
2022/06/09 06:49:31;;;;;;;35.42;9.68;;;;;;;13.76;100.00;101180.66;4935865;29;20055;-56
2022/06/09 06:51:56;;;;;;;40.15;10.68;;;;;;;13.80;100.00;101185.06;4936420;29;20056;-56
2022/06/09 06:54:22;;;;;;;41.13;11.50;;;;;;;13.88;100.00;101197.28;4936317;29;20027;-56
2022/06/09 06:56:47;;;;;;;36.08;10.13;;;;;;;13.86;100.00;101196.41;4935679;29;20027;-56
2022/06/09 06:59:12;;;;;;;25.42;9.82;;;;;;;13.88;100.00;101199.88;4936047;29;20031;-56
2022/06/09 07:01:37;;;;;;;35.80;10.55;;;;;;;13.86;100.00;101201.59;4936462;29;20036;-56
2022/06/09 07:04:03;;;;;;;31.15;11.18;;;;;;;13.89;100.00;101205.13;4935502;29;20023;-56
2022/06/09 07:06:29;;;;;;;32.03;11.07;;;;;;;13.91;100.00;101197.38;4936225;29;20460;-56
2022/06/09 07:08:54;;;;;;;36.00;11.98;;;;;;;13.95;100.00;101202.63;4935584;29;20054;-56
2022/06/09 07:11:19;;;;;;;35.85;11.48;;;;;;;14.03;100.00;101210.56;4935298;29;20024;-56
2022/06/09 07:13:44;;;;;;;35.38;11.13;;;;;;;14.02;100.00;101219.22;4936285;29;20130;-56
2022/06/09 07:16:12;;;;;;;31.00;11.15;;;;;;;14.16;100.00;101222.06;4935925;29;20031;-56
2022/06/09 07:18:38;;;;;;;33.85;10.55;;;;;;;14.23;100.00;101229.16;4935421;29;20030;-56
2022/06/09 07:21:04;;;;;;;32.50;11.02;;;;;;;14.36;100.00;101226.78;4935947;29;20024;-56
2022/06/09 07:23:31;;;;;;;32.83;12.05;;;;;;;14.46;100.00;101231.31;4935047;29;20054;-56
2022/06/09 07:25:58;;;;;;;29.77;11.63;;;;;;;14.58;97.86;101241.09;4935750;29;20023;-56
2022/06/09 07:28:24;;;;;;;29.17;11.20;;;;;;;14.69;95.61;101231.78;4936023;29;20028;-56
2022/06/09 07:30:55;;;;;;;29.35;10.75;;;;;;;14.79;96.34;101244.09;4934891;29;20379;-56
2022/06/09 07:33:20;;;;;;;24.15;10.52;;;;;;;14.89;95.21;101237.38;4935790;29;20027;-56
2022/06/09 07:35:46;;;;;;;32.47;10.82;;;;;;;14.98;95.50;101236.66;4935915;29;20499;-56
2022/06/09 07:38:11;;;;;;;27.17;10.38;;;;;;;15.10;95.51;101244.66;4934910;29;20095;-56
2022/06/09 07:40:40;;;;;;;25.73;10.25;;;;;;;15.20;96.38;101239.63;4935796;29;20028;-56
2022/06/09 07:43:06;;;;;;;24.98;9.98;;;;;;;15.35;92.42;101242.47;4935814;29;20079;-56
2022/06/09 07:45:31;;;;;;;24.98;10.82;;;;;;;15.46;92.78;101240.03;4934984;29;20035;-56
2022/06/09 07:47:57;;;;;;;17.42;8.80;;;;;;;15.64;91.62;101236.84;4935658;29;20071;-56
2022/06/09 07:50:23;;;;;;;15.75;8.48;;;;;;;15.67;89.22;101241.22;4935582;29;20036;-56
2022/06/09 07:52:48;;;;;;;19.52;8.48;;;;;;;15.92;87.74;101239.88;4934951;29;20111;-56
2022/06/09 07:55:16;;;;;;;14.10;7.22;;;;;;;15.84;83.87;101249.28;4935201;29;20424;-56
2022/06/09 07:57:42;;;;;;;15.20;7.35;;;;;;;15.95;87.30;101245.13;4935589;29;20353;-56
2022/06/09 08:00:09;;;;;;;15.30;7.38;;;;;;;15.92;83.71;101250.25;4934752;29;20038;-56
2022/06/09 08:02:34;;;;;;;12.23;6.30;;;;;;;16.00;85.95;101252.97;4935591;29;20468;-56
2022/06/09 08:05:00;;;;;;;7.15;5.35;;;;;;;15.99;85.10;101252.09;4935373;29;20052;-56
2022/06/09 08:07:26;;;;;;;12.68;5.65;;;;;;;16.17;84.91;101261.03;4934616;29;20064;-56
2022/06/09 08:09:52;;;;;;;7.90;3.72;;;;;;;16.35;85.27;101261.25;4935353;29;20019;-56
2022/06/09 08:12:17;;;;;;;7.35;3.05;;;;;;;16.42;81.42;101256.97;4935530;29;20059;-56
2022/06/09 08:14:42;;;;;;;7.93;2.97;;;;;;;16.42;80.74;101263.06;4934574;29;20036;-56
2022/06/09 08:17:09;;;;;;;8.43;3.28;;;;;;;16.63;84.15;101267.66;4935184;29;20498;-56
2022/06/09 08:19:35;;;;;;;8.52;4.22;;;;;;;16.93;81.71;101268.00;4935837;29;20383;-56
2022/06/09 08:22:00;;;;;;;6.35;3.83;;;;;;;17.07;79.52;101269.00;4938516;29;20024;-56
2022/06/09 08:24:26;;;;;;;6.93;3.53;;;;;;;17.15;81.77;101276.88;4938761;29;20086;-56
2022/06/09 08:26:51;;;;;;;7.13;3.33;;;;;;;17.25;78.87;101288.28;4938479;29;20035;-56
2022/06/09 08:29:16;;;;;;;13.30;3.55;;;;;;;17.25;78.29;101296.09;4939202;29;20028;-56
2022/06/09 08:31:43;;;;;;;12.00;3.83;;;;;;;17.21;79.44;101292.56;4939101;29;20107;-56
2022/06/09 08:34:11;;;;;;;10.25;3.60;;;;;;;17.07;76.38;101300.25;4938031;29;20042;-56
2022/06/09 08:36:36;;;;;;;;;;;;;;;17.28;81.79;101309.13;4939440;29;20043;-56
2022/06/09 08:39:02;;;;;;;11.05;3.97;;;;;;;17.27;79.40;101312.59;4938670;29;19914;-56
2022/06/09 08:41:39;;;;;;;10.32;3.25;;;;;;;17.31;78.58;101306.53;4938214;29;20030;-56
2022/06/09 08:44:29;;;;;;;13.30;3.70;;;;;;;17.60;77.84;101321.56;4939026;29;20023;-56
2022/06/09 08:47:02;;;;;;;10.25;2.92;;;;;;;17.57;74.64;101331.94;4938715;29;20306;-56
2022/06/09 08:49:35;;;;;;;9.20;2.50;;;;;;;17.31;72.39;101334.34;4937975;29;20032;-56
2022/06/09 08:52:06;;;;;;;6.07;1.60;;;;;;;17.11;69.79;101343.69;4938776;29;20027;-56
2022/06/09 08:54:36;;;;;;;7.88;2.05;;;;;;;17.10;69.00;101339.34;4938551;29;20380;-56
2022/06/09 08:57:11;;;;;;;4.90;1.70;;;;;;;17.14;69.20;101345.44;4937759;29;20531;-56
2022/06/09 08:59:38;;;;;;;8.52;2.50;;;;;;;17.16;70.03;101350.69;4938614;29;20035;-56
2022/06/09 09:02:24;;;;;;;;;;;;;;;17.34;76.35;101349.97;4938207;29;20035;-56
2022/06/09 09:05:01;;;;;;;9.23;3.28;;;;;;;17.17;73.25;101347.22;4937088;29;20469;-56
2022/06/09 09:07:33;;;;;;;10.38;3.95;;;;;;;16.95;74.52;101362.59;4938602;29;20036;-56
2022/06/09 09:10:12;;;;;;;14.82;4.03;;;;;;;16.86;76.29;101357.25;4937444;29;20039;-56
2022/06/09 09:13:22;;;;;;;6.53;3.42;;;;;;;16.72;76.11;101357.97;4938550;29;20035;-56
2022/06/09 09:16:01;;;;;;;8.85;4.20;;;;;;;16.69;78.26;101363.13;4917146;29;20496;-56
2022/06/09 09:18:44;;;;;;;12.95;6.10;;;;;;;16.62;78.16;101364.78;4917112;29;20032;-56
2022/06/09 09:21:24;;;;;;;17.77;5.30;;;;;;;16.66;79.75;101370.06;4931067;29;20036;-56
2022/06/09 09:24:00;;;;;;;14.57;5.45;;;;;;;16.74;80.88;101369.25;4937241;29;20056;-56
2022/06/09 09:26:29;;;;;;;19.13;6.85;;;;;;;16.84;80.30;101375.47;4937959;29;20476;-56
2022/06/09 09:29:08;;;;;;;13.73;7.07;;;;;;;16.95;80.19;101383.44;4937845;29;20046;-56
2022/06/09 09:31:46;;;;;;;16.80;7.88;;;;;;;17.17;79.35;101379.38;4936863;29;20110;-56
2022/06/09 09:34:36;;;;;;;13.98;8.13;;;;;;;17.30;78.00;101390.78;4937814;29;20031;-56
2022/06/09 09:37:14;;;;;;;26.60;9.35;;;;;;;17.28;78.57;101382.06;4937027;29;20035;-56
2022/06/09 09:39:44;;;;;;;21.65;10.27;;;;;;;17.38;77.80;101394.34;4937828;29;20375;-56
2022/06/09 09:42:21;;;;;;;21.42;9.60;;;;;;;17.53;77.05;101388.41;4937651;29;20439;-56
2022/06/09 09:45:13;;;;;;;;;;;;;;;17.78;78.89;101392.09;4937479;29;20110;-56
2022/06/09 09:47:57;;;;;;;18.63;9.27;;;;;;;17.98;74.46;101395.78;4937766;29;19958;-56
2022/06/09 09:50:23;;;;;;;19.48;9.98;;;;;;;18.24;71.79;101399.44;4937598;29;20361;-56
2022/06/09 09:52:55;;;;;;;21.65;10.55;;;;;;;18.17;73.59;101397.63;4936871;29;20551;-56
2022/06/09 09:55:29;;;;;;;20.40;10.25;;;;;;;18.45;71.98;101399.56;4937504;29;20058;-56
2022/06/09 09:58:16;;;;;;;17.63;9.85;;;;;;;18.66;74.83;101402.28;4937365;29;20043;-56
2022/06/09 10:00:42;;;;;;;18.45;9.95;;;;;;;19.13;70.32;101400.75;4937694;29;20062;-56
2022/06/09 10:09:02;;;;;;;21.83;10.25;;;;;;;19.37;66.60;101418.25;4937758;29;20043;-56
2022/06/09 10:11:55;;;;;;;16.33;8.97;;;;;;;19.72;68.42;101414.81;4937477;29;20082;-56
2022/06/09 10:14:47;;;;;;;18.85;9.55;;;;;;;20.11;67.00;101421.81;4936385;29;20031;-56
2022/06/09 10:17:25;;;;;;;14.93;10.02;;;;;;;20.36;66.55;101410.44;4937147;29;20032;-56
2022/06/09 10:19:59;;;;;;;17.67;10.40;;;;;;;20.97;62.76;101416.38;4936297;29;20503;-56
2022/06/09 10:22:27;;;;;;;17.52;10.10;;;;;;;21.86;61.88;101421.97;4936958;29;20460;-56
2022/06/09 10:24:58;;;;;;;16.83;9.70;;;;;;;22.30;57.39;101420.69;4936804;29;20086;-57
2022/06/09 10:27:32;;;;;;;17.40;9.52;;;;;;;22.38;58.80;101423.28;4936418;29;20087;-57
2022/06/09 10:30:08;;;;;;;12.30;7.88;;;;;;;22.67;57.16;101420.34;4937016;29;20035;-57
2022/06/09 10:32:47;;;;;;;17.17;8.10;;;;;;;22.60;55.92;101421.28;4936904;29;20387;-56
2022/06/09 10:35:35;;;;;;;15.55;7.93;;;;;;;22.85;60.16;101431.50;4935877;29;20303;-57
2022/06/09 10:38:10;;;;;;;17.50;8.38;;;;;;;22.96;55.29;101429.59;4936848;29;20131;-57
2022/06/09 10:40:48;;;;;;;10.50;7.90;;;;;;;23.21;56.01;101426.69;4936219;29;20134;-57
2022/06/09 10:43:27;;;;;;;15.43;8.55;;;;;;;22.57;55.97;101429.22;4935813;29;20028;-57
2022/06/09 10:45:58;;;;;;;20.30;8.90;;;;;;;21.51;56.67;101429.19;4936468;29;20024;-56
2022/06/09 10:56:58;;;;;;;14.52;7.47;;;;;;;20.69;60.40;101437.41;4936770;29;20066;-56
2022/06/09 10:59:33;;;;;;;17.80;6.70;;;;;;;20.97;59.06;101441.72;4936480;29;20047;-56
2022/06/09 11:01:59;;;;;;;15.63;6.82;;;;;;;20.85;59.69;101445.25;4935676;29;20102;-56
2022/06/09 11:04:31;;;;;;;17.40;8.70;;;;;;;20.89;58.84;101437.38;4936285;29;20034;-56
2022/06/09 11:06:57;;;;;;;19.13;7.88;;;;;;;20.93;59.22;101433.00;4936176;29;20039;-56
2022/06/09 11:09:28;;;;;;;15.70;6.57;;;;;;;21.25;60.69;101436.34;4935567;29;20031;-56
2022/06/09 11:12:15;;;;;;;18.80;6.78;;;;;;;21.76;59.33;101443.94;4936017;29;20543;-56
2022/06/09 11:14:46;;;;;;;25.65;6.25;;;;;;;23.12;56.40;101445.19;4936215;29;20110;-56
2022/06/09 11:17:17;;;;;;;14.85;4.40;;;;;;;24.26;50.76;101445.22;4935123;29;20031;-57
2022/06/09 11:19:59;;;;;;;11.63;3.72;;;;;;;24.76;52.71;101450.47;4936320;29;20030;-57
2022/06/09 11:22:28;;;;;;;12.98;3.70;;;;;;;25.72;48.08;101459.84;4936141;29;20099;-57
2022/06/09 11:25:20;;;;;;;15.63;4.20;;;;;;;26.42;45.49;101456.31;4935412;29;20139;-57
2022/06/09 11:28:03;;;;;;;11.20;3.58;;;;;;;26.84;43.54;101457.81;4936005;29;20020;-57
2022/06/09 11:30:33;;;;;;;15.27;3.55;;;;;;;27.43;44.40;101458.75;4935561;29;20058;-57
2022/06/09 11:33:19;;;;;;;13.43;4.07;;;;;;;26.71;43.54;101461.69;4935922;29;20103;-57
2022/06/09 11:36:07;;;;;;;16.23;4.30;;;;;;;24.89;45.08;101456.38;4935850;29;20035;-57
2022/06/09 11:38:55;;;;;;;10.13;3.90;;;;;;;23.08;46.11;101467.16;4935050;29;20035;-57
2022/06/09 11:41:46;;;;;;;11.48;3.53;;;;;;;22.08;50.66;101476.91;4935976;29;20035;-56
2022/06/09 11:44:23;;;;;;;16.95;3.83;;;;;;;21.86;51.33;101477.09;4934825;29;20039;-57